Time;durP1;ratioP1;P1;durP2;ratioP2;P2;SDS_P1;SDS_P2;PMS_P1;PMS_P2;Temp;Humidity;BMP_temperature;BMP_pressure;BME280_temperature;BME280_humidity;BME280_pressure;Samples;Min_cycle;Max_cycle;Signal;HPM_P1;HPM_P2
2022/01/12 00:01:04;;;;;;;1999.90;999.90;;;1.80;99.90;;;;;;5064121;28;20518;-72
2022/01/12 00:03:31;;;;;;;1999.90;999.90;;;1.70;99.90;;;;;;5069492;28;20549;-72
2022/01/12 00:05:57;;;;;;;1999.90;999.90;;;2.00;99.90;;;;;;5062566;28;20896;-72
2022/01/12 00:08:26;;;;;;;1999.90;999.90;;;1.70;99.90;;;;;;5065556;28;20559;-72
2022/01/12 00:10:53;;;;;;;1999.90;999.90;;;1.60;99.90;;;;;;5068767;28;20480;-72
2022/01/12 00:13:19;;;;;;;1999.90;999.90;;;1.70;99.90;;;;;;5070252;28;20461;-73
2022/01/12 00:15:46;;;;;;;1999.90;999.90;;;1.70;99.90;;;;;;5072968;28;20539;-72
2022/01/12 00:18:13;;;;;;;1999.90;999.90;;;1.70;99.90;;;;;;5072291;28;20886;-72
2022/01/12 00:20:40;;;;;;;1999.90;999.90;;;1.80;99.90;;;;;;5055752;28;21024;-72
2022/01/12 00:23:07;;;;;;;1999.90;999.90;;;1.90;99.90;;;;;;5069908;28;20465;-72
2022/01/12 00:25:55;;;;;;;1999.90;999.90;;;1.90;99.90;;;;;;5071438;28;21062;-72
2022/01/12 00:33:51;;;;;;;1999.90;999.90;;;1.80;99.90;;;;;;5049898;28;20522;-72
2022/01/12 00:36:17;;;;;;;1999.90;999.90;;;1.90;99.90;;;;;;5067981;28;20477;-72
2022/01/12 00:38:45;;;;;;;1999.90;999.90;;;2.00;99.90;;;;;;5069666;28;20526;-72
2022/01/12 00:41:15;;;;;;;1999.90;999.90;;;2.00;99.90;;;;;;5070495;28;20822;-72
2022/01/12 00:43:44;;;;;;;1999.90;999.90;;;1.90;99.90;;;;;;5068367;28;20470;-72
2022/01/12 00:46:10;;;;;;;1999.90;999.90;;;1.90;99.90;;;;;;5070821;28;20836;-72
2022/01/12 00:48:37;;;;;;;1999.90;999.90;;;2.00;99.90;;;;;;5071692;28;20499;-72
2022/01/12 00:51:04;;;;;;;1999.90;999.90;;;2.00;99.90;;;;;;5062853;28;20466;-72
2022/01/12 00:53:31;;;;;;;1999.90;999.90;;;2.00;99.90;;;;;;5062027;28;20446;-72
2022/01/12 00:55:58;;;;;;;1999.90;999.90;;;2.00;99.90;;;;;;5066811;28;20512;-72
2022/01/12 00:58:26;;;;;;;1999.90;999.90;;;2.10;99.90;;;;;;5065833;28;21319;-72
2022/01/12 01:00:52;;;;;;;1999.90;999.90;;;2.10;99.90;;;;;;5067592;28;20466;-72
2022/01/12 01:03:19;;;;;;;1999.90;999.90;;;2.10;99.90;;;;;;5071227;28;21015;-74
2022/01/12 01:05:46;;;;;;;1999.90;999.90;;;1.90;99.90;;;;;;5063642;28;20507;-72
2022/01/12 01:08:12;;;;;;;1999.90;999.90;;;1.90;99.90;;;;;;5071101;28;20461;-72
2022/01/12 01:10:45;;;;;;;1999.90;999.90;;;1.90;99.90;;;;;;5068542;28;20945;-72
2022/01/12 01:13:14;;;;;;;1999.90;999.90;;;1.80;99.90;;;;;;5069826;28;20488;-73
2022/01/12 01:16:03;;;;;;;1999.90;999.90;;;1.80;99.90;;;;;;5070812;28;20469;-72
2022/01/12 01:26:46;;;;;;;1999.90;999.90;;;1.80;99.90;;;;;;5069345;28;20504;-72
2022/01/12 01:29:13;;;;;;;1999.90;999.90;;;1.80;99.90;;;;;;5060503;28;20524;-72
2022/01/12 01:31:43;;;;;;;1999.90;999.90;;;1.80;99.90;;;;;;5068317;28;20515;-74
2022/01/12 01:34:12;;;;;;;1999.90;999.90;;;1.80;99.90;;;;;;5069231;28;20453;-72
2022/01/12 01:36:41;;;;;;;1999.90;999.90;;;1.90;99.90;;;;;;5059879;28;20494;-72
2022/01/12 01:39:09;;;;;;;1999.90;999.90;;;2.00;99.90;;;;;;5070317;28;20514;-72
2022/01/12 01:41:39;;;;;;;1999.90;999.90;;;2.00;99.90;;;;;;5060422;28;20459;-73
2022/01/12 01:44:31;;;;;;;1999.90;999.90;;;2.00;99.90;;;;;;5070018;28;20465;-73
2022/01/12 01:55:25;;;;;;;1999.90;999.90;;;2.30;99.90;;;;;;5013858;28;20470;-71
2022/01/12 01:57:51;;;;;;;1999.90;999.90;;;2.40;99.90;;;;;;5020140;28;20443;-73
2022/01/12 02:00:20;;;;;;;1999.90;999.90;;;2.30;99.90;;;;;;5042256;28;20462;-72
2022/01/12 02:02:48;;;;;;;1999.90;999.90;;;2.30;99.90;;;;;;5066466;28;20965;-72
2022/01/12 02:05:15;;;;;;;1999.90;999.90;;;2.20;99.90;;;;;;5067103;28;20564;-72
2022/01/12 02:07:42;;;;;;;1999.90;999.90;;;2.30;99.90;;;;;;5069562;28;20461;-72
2022/01/12 02:10:09;;;;;;;1999.90;999.90;;;2.30;99.90;;;;;;5068938;28;20457;-72
2022/01/12 02:12:37;;;;;;;1999.90;999.90;;;2.30;99.90;;;;;;5072406;28;20694;-72
2022/01/12 02:15:14;;;;;;;1999.90;999.90;;;2.30;99.90;;;;;;5070875;28;21001;-72
2022/01/12 02:17:53;;;;;;;1999.90;999.90;;;2.30;99.90;;;;;;5067279;28;21022;-72
2022/01/12 02:35:10;;;;;;;1999.90;999.90;;;2.40;99.90;;;;;;5073378;28;20869;-72
2022/01/12 02:37:02;;;;;;;1999.90;999.90;;;2.40;99.90;;;;;;5072237;28;20439;-72
2022/01/12 02:39:52;;;;;;;1999.90;999.90;;;2.50;99.90;;;;;;5071797;28;20497;-74
2022/01/12 02:42:19;;;;;;;1999.90;999.90;;;2.70;99.90;;;;;;5067174;28;20468;-73
2022/01/12 02:55:46;;;;;;;1999.90;999.90;;;3.00;99.90;;;;;;5063807;28;20490;-72
2022/01/12 02:58:13;;;;;;;1999.90;999.90;;;3.20;99.90;;;;;;5068194;28;20445;-73
2022/01/12 03:01:01;;;;;;;1999.90;999.90;;;3.30;99.90;;;;;;5061307;28;20480;-72
2022/01/12 03:03:31;;;;;;;1999.90;999.90;;;3.30;99.90;;;;;;5062512;28;20445;-72
2022/01/12 03:06:01;;;;;;;1999.90;999.90;;;3.40;99.90;;;;;;5066735;28;20522;-72
2022/01/12 03:08:29;;;;;;;1999.90;999.90;;;3.40;99.90;;;;;;5072644;28;20529;-71
2022/01/12 03:10:57;;;;;;;1999.90;999.90;;;3.30;99.90;;;;;;5072688;28;20540;-72
2022/01/12 03:13:23;;;;;;;1999.90;999.90;;;3.10;99.90;;;;;;5071886;28;20568;-72
2022/01/12 03:15:50;;;;;;;1999.90;999.90;;;3.00;99.90;;;;;;5072793;28;20522;-72
2022/01/12 03:18:17;;;;;;;1999.90;999.90;;;2.80;99.90;;;;;;5068955;28;20464;-72
2022/01/12 03:20:45;;;;;;;1999.90;999.90;;;2.80;99.90;;;;;;5072068;28;20511;-71
2022/01/12 03:23:14;;;;;;;1999.90;999.90;;;2.70;99.90;;;;;;5072298;28;20456;-72
2022/01/12 03:25:40;;;;;;;1999.90;999.90;;;2.80;99.90;;;;;;5063454;28;20530;-72
2022/01/12 03:28:09;;;;;;;1999.90;999.90;;;2.70;99.90;;;;;;5061903;28;20462;-72
2022/01/12 03:30:46;;;;;;;1999.90;999.90;;;2.70;99.90;;;;;;5070036;28;20478;-72
2022/01/12 03:33:19;;;;;;;1999.90;999.90;;;2.60;99.90;;;;;;5073251;28;20846;-72
2022/01/12 03:35:51;;;;;;;1999.90;999.90;;;2.60;99.90;;;;;;5073165;28;20476;-74
2022/01/12 03:38:21;;;;;;;1999.90;999.90;;;2.60;99.90;;;;;;5063772;28;20466;-72
2022/01/12 03:40:48;;;;;;;1999.90;999.90;;;2.60;99.90;;;;;;5069134;28;20474;-72
2022/01/12 03:43:17;;;;;;;1999.90;999.90;;;2.70;99.90;;;;;;5067425;28;21166;-72
2022/01/12 03:45:45;;;;;;;1999.90;999.90;;;2.70;99.90;;;;;;5067920;28;20485;-73
2022/01/12 03:48:11;;;;;;;1999.90;999.90;;;2.60;99.90;;;;;;5070889;28;21096;-72
2022/01/12 03:50:38;;;;;;;1999.90;999.90;;;2.60;99.90;;;;;;5065943;28;20879;-72
2022/01/12 03:53:05;;;;;;;1999.90;999.90;;;2.60;99.90;;;;;;5072709;28;20480;-72
2022/01/12 03:55:31;;;;;;;1999.90;999.90;;;2.70;99.90;;;;;;5070598;28;20902;-71
2022/01/12 03:57:58;;;;;;;1999.90;999.90;;;2.70;99.90;;;;;;5065460;28;20499;-72
2022/01/12 04:00:26;;;;;;;1999.90;999.90;;;2.70;99.90;;;;;;5069038;28;20465;-72
2022/01/12 04:02:53;;;;;;;1999.90;999.90;;;2.80;99.90;;;;;;5072531;28;20959;-73
2022/01/12 04:05:29;;;;;;;1999.90;999.90;;;2.70;99.90;;;;;;5064777;28;20482;-72
2022/01/12 04:10:40;;;;;;;1999.90;999.90;;;2.80;99.90;;;;;;5068343;28;20952;-72
2022/01/12 04:13:07;;;;;;;1999.90;999.90;;;2.90;99.90;;;;;;5060417;28;20548;-72
2022/01/12 04:15:35;;;;;;;1999.90;999.90;;;2.80;99.90;;;;;;5069301;28;21240;-74
2022/01/12 04:18:01;;;;;;;1999.90;999.90;;;2.90;99.90;;;;;;5066294;28;20517;-72
2022/01/12 04:20:28;;;;;;;1999.90;999.90;;;3.00;99.90;;;;;;5070787;28;20461;-72
2022/01/12 04:25:39;;;;;;;1999.90;999.90;;;3.10;99.90;;;;;;5071875;28;21087;-72
2022/01/12 04:28:06;;;;;;;1999.90;999.90;;;3.20;99.90;;;;;;5071405;28;20518;-72
2022/01/12 04:30:34;;;;;;;1999.90;999.90;;;3.10;99.90;;;;;;5071882;28;20496;-72
2022/01/12 04:33:01;;;;;;;1999.90;999.90;;;3.10;99.90;;;;;;5069251;28;20511;-74
2022/01/12 04:35:32;;;;;;;1999.90;999.90;;;3.10;99.90;;;;;;5065053;28;20533;-72
2022/01/12 04:37:59;;;;;;;1999.90;999.90;;;3.00;99.90;;;;;;5068726;28;20481;-72
2022/01/12 04:40:26;;;;;;;1999.90;999.90;;;2.60;99.90;;;;;;5068320;28;20548;-73
2022/01/12 04:42:53;;;;;;;1999.90;999.90;;;3.00;99.90;;;;;;5069063;28;20511;-72
2022/01/12 04:45:36;;;;;;;1999.90;999.90;;;2.90;99.90;;;;;;5061747;28;21063;-72
2022/01/12 04:48:20;;;;;;;1999.90;999.90;;;3.00;99.90;;;;;;5063489;28;20457;-72
2022/01/12 04:50:49;;;;;;;1999.90;999.90;;;3.00;99.90;;;;;;5070426;28;20465;-72
2022/01/12 04:53:18;;;;;;;1999.90;999.90;;;3.20;99.90;;;;;;5062663;28;20908;-72
2022/01/12 04:55:44;;;;;;;1999.90;999.90;;;3.20;99.90;;;;;;5071594;28;20469;-72
2022/01/12 04:58:11;;;;;;;1999.90;999.90;;;3.10;99.90;;;;;;5069939;28;20465;-72
2022/01/12 05:00:39;;;;;;;1999.90;999.90;;;3.00;99.90;;;;;;5068347;28;20461;-72
2022/01/12 05:08:50;;;;;;;1999.90;999.90;;;3.00;99.90;;;;;;5069269;28;20472;-72
2022/01/12 05:14:01;;;;;;;1999.90;999.90;;;3.00;99.90;;;;;;5066270;28;20511;-72
2022/01/12 05:16:28;;;;;;;1999.90;999.90;;;3.20;99.90;;;;;;5069640;28;20545;-74
2022/01/12 05:18:59;;;;;;;1999.90;999.90;;;3.20;99.90;;;;;;5058701;28;20466;-72
2022/01/12 05:21:26;;;;;;;1999.90;999.90;;;3.20;99.90;;;;;;5071922;28;20448;-72
2022/01/12 05:23:53;;;;;;;1999.90;999.90;;;3.10;99.90;;;;;;5062520;28;20461;-72
2022/01/12 05:26:19;;;;;;;1999.90;999.90;;;3.10;99.90;;;;;;5067161;28;20544;-72
2022/01/12 05:28:46;;;;;;;1999.90;999.90;;;3.00;99.90;;;;;;5069809;28;20516;-70
2022/01/12 05:31:13;;;;;;;1999.90;999.90;;;3.20;99.90;;;;;;5069238;28;20466;-69
2022/01/12 05:33:46;;;;;;;1999.90;999.90;;;3.10;99.90;;;;;;5063292;28;20509;-70
2022/01/12 05:36:16;;;;;;;1999.90;999.90;;;3.10;99.90;;;;;;5071585;28;20473;-70
2022/01/12 05:38:43;;;;;;;1999.90;999.90;;;3.00;99.90;;;;;;5071201;28;20466;-70
2022/01/12 05:41:09;;;;;;;1999.90;999.90;;;3.00;99.90;;;;;;5071438;28;20531;-70
2022/01/12 05:43:37;;;;;;;1999.90;999.90;;;3.10;99.90;;;;;;5070058;28;20527;-69
2022/01/12 05:46:10;;;;;;;1999.90;999.90;;;3.30;99.90;;;;;;5065046;28;21188;-69
2022/01/12 05:51:23;;;;;;;1999.90;999.90;;;3.30;99.90;;;;;;5070271;28;20486;-70
2022/01/12 05:53:50;;;;;;;1999.90;999.90;;;3.10;99.90;;;;;;5069868;28;21004;-70
2022/01/12 05:56:16;;;;;;;1999.90;999.90;;;3.00;99.90;;;;;;5064981;28;20485;-68
2022/01/12 05:58:43;;;;;;;1999.90;999.90;;;3.00;99.90;;;;;;5071113;28;20462;-72
2022/01/12 06:01:10;;;;;;;1999.90;999.90;;;2.90;99.90;;;;;;5067969;28;20930;-70
2022/01/12 06:03:36;;;;;;;1999.90;999.90;;;2.90;99.90;;;;;;5067816;28;20867;-70
2022/01/12 06:06:04;;;;;;;1999.90;999.90;;;2.90;99.90;;;;;;5070964;28;20530;-69
2022/01/12 06:08:32;;;;;;;1999.90;999.90;;;2.90;99.90;;;;;;5068641;28;20511;-70
2022/01/12 06:10:58;;;;;;;1999.90;999.90;;;2.90;99.90;;;;;;5071533;28;20507;-71
2022/01/12 06:13:25;;;;;;;1999.90;999.90;;;2.90;99.90;;;;;;5069074;28;20705;-69
2022/01/12 06:15:52;;;;;;;1999.90;999.90;;;3.10;99.90;;;;;;5070200;28;20485;-70
2022/01/12 06:18:18;;;;;;;1999.90;999.90;;;3.00;99.90;;;;;;5062313;28;20465;-70
2022/01/12 06:20:45;;;;;;;1999.90;999.90;;;3.00;99.90;;;;;;5068575;28;20530;-70
2022/01/12 06:23:12;;;;;;;1999.90;999.90;;;3.10;99.90;;;;;;5070437;28;20465;-69
2022/01/12 06:25:40;;;;;;;1999.90;999.90;;;3.30;99.90;;;;;;5065650;28;20480;-67
2022/01/12 06:28:22;;;;;;;1999.90;999.90;;;3.30;99.90;;;;;;5064504;28;20852;-68
2022/01/12 06:33:34;;;;;;;1999.90;999.90;;;3.20;99.90;;;;;;5051997;28;20994;-70
2022/01/12 06:36:00;;;;;;;1999.90;999.90;;;3.40;99.90;;;;;;5050656;28;20466;-70
2022/01/12 06:38:27;;;;;;;1999.90;999.90;;;3.30;99.90;;;;;;5056238;28;20499;-70
2022/01/12 06:40:55;;;;;;;1999.90;999.90;;;3.30;99.90;;;;;;5071635;28;20850;-70
2022/01/12 06:43:22;;;;;;;1999.90;999.90;;;3.40;99.90;;;;;;5071633;28;20946;-70
2022/01/12 06:45:48;;;;;;;1999.90;999.90;;;3.30;99.90;;;;;;5071799;28;20516;-70
2022/01/12 06:48:15;;;;;;;1999.90;999.90;;;3.30;99.90;;;;;;5063417;28;20446;-71
2022/01/12 06:50:42;;;;;;;1999.90;999.90;;;3.40;99.90;;;;;;5062505;28;20457;-70
2022/01/12 06:53:08;;;;;;;1999.90;999.90;;;3.40;99.90;;;;;;5070670;28;20473;-70
2022/01/12 06:55:35;;;;;;;1999.90;999.90;;;3.40;99.90;;;;;;5070220;28;20474;-71
2022/01/12 06:58:03;;;;;;;1999.90;999.90;;;3.40;99.90;;;;;;5066621;28;20442;-70
2022/01/12 07:00:30;;;;;;;1999.90;999.90;;;3.40;99.90;;;;;;5054877;28;20477;-70
2022/01/12 07:02:56;;;;;;;1999.90;999.90;;;3.40;99.90;;;;;;5056317;28;20456;-69
2022/01/12 07:05:23;;;;;;;1999.90;999.90;;;3.30;99.90;;;;;;5066154;28;20478;-70
2022/01/12 07:07:50;;;;;;;1999.90;999.90;;;3.30;99.90;;;;;;5065301;28;20446;-70
2022/01/12 07:10:16;;;;;;;1999.90;999.90;;;3.30;99.90;;;;;;5074826;28;20457;-69
2022/01/12 07:12:43;;;;;;;1999.90;999.90;;;3.40;99.90;;;;;;5073984;28;20445;-70
2022/01/12 07:15:11;;;;;;;1999.90;999.90;;;3.50;99.90;;;;;;5055340;28;20539;-70
2022/01/12 07:17:38;;;;;;;1999.90;999.90;;;3.50;99.90;;;;;;5055279;28;20446;-70
2022/01/12 07:20:05;;;;;;;1999.90;999.90;;;3.50;99.90;;;;;;5074458;28;21011;-70
2022/01/12 07:22:32;;;;;;;1999.90;999.90;;;3.50;99.90;;;;;;5061668;28;20458;-70
2022/01/12 07:24:59;;;;;;;1999.90;999.90;;;3.50;99.90;;;;;;5073752;28;20583;-69
2022/01/12 07:27:25;;;;;;;1999.90;999.90;;;3.60;99.90;;;;;;5075237;28;20946;-70
2022/01/12 07:29:52;;;;;;;1999.90;999.90;;;3.60;99.90;;;;;;5056750;28;20451;-69
2022/01/12 07:32:20;;;;;;;1999.90;999.90;;;3.60;99.90;;;;;;5055128;28;20537;-71
2022/01/12 07:34:47;;;;;;;1999.90;999.90;;;3.50;99.90;;;;;;5070456;28;20515;-73
2022/01/12 07:37:13;;;;;;;1999.90;999.90;;;3.60;99.90;;;;;;5057587;28;21000;-73
2022/01/12 07:39:40;;;;;;;1999.90;999.90;;;3.60;99.90;;;;;;5068593;28;21019;-73
2022/01/12 07:42:07;;;;;;;1999.90;999.90;;;3.60;99.90;;;;;;5073797;28;20457;-72
2022/01/12 07:44:34;;;;;;;1999.90;999.90;;;3.60;99.90;;;;;;5060129;28;20515;-72
2022/01/12 07:47:00;;;;;;;1999.90;999.90;;;3.80;99.90;;;;;;5054311;28;20454;-72
2022/01/12 07:49:28;;;;;;;1999.90;999.90;;;3.80;99.90;;;;;;5054871;28;20450;-72
2022/01/12 07:51:55;;;;;;;1999.90;999.90;;;3.80;99.90;;;;;;5072083;28;21166;-71
2022/01/12 07:54:22;;;;;;;1999.90;999.90;;;3.80;99.90;;;;;;5072483;28;20485;-72
2022/01/12 07:56:48;;;;;;;1999.90;999.90;;;4.00;99.90;;;;;;5073791;28;20473;-73
2022/01/12 07:59:15;;;;;;;1999.90;999.90;;;4.00;99.90;;;;;;5064196;28;20500;-73
2022/01/12 08:01:42;;;;;;;1999.90;999.90;;;3.90;99.90;;;;;;5053741;28;20500;-72
2022/01/12 08:04:09;;;;;;;1999.90;999.90;;;3.90;99.90;;;;;;5065324;28;20445;-72
2022/01/12 08:06:37;;;;;;;1999.90;999.90;;;3.90;99.90;;;;;;5057810;28;20474;-72
2022/01/12 08:09:07;;;;;;;1999.90;999.90;;;3.90;99.90;;;;;;5059940;28;20528;-74
2022/01/12 08:11:33;;;;;;;1999.90;999.90;;;3.90;99.90;;;;;;5073318;28;20479;-73
2022/01/12 08:14:00;;;;;;;1999.90;999.90;;;3.90;99.90;;;;;;5067817;28;20486;-72
2022/01/12 08:16:27;;;;;;;1999.90;999.90;;;4.00;99.90;;;;;;5054361;28;20913;-72
2022/01/12 08:18:55;;;;;;;1999.90;999.90;;;4.00;99.90;;;;;;5068095;28;20447;-72
2022/01/12 08:21:23;;;;;;;1999.90;999.90;;;4.00;99.90;;;;;;5067984;28;20453;-72
2022/01/12 08:23:51;;;;;;;1999.90;999.90;;;4.20;99.90;;;;;;5073155;28;21017;-72
2022/01/12 08:26:18;;;;;;;1999.90;999.90;;;4.20;99.90;;;;;;5059809;28;20474;-72
2022/01/12 08:28:44;;;;;;;1999.90;999.90;;;4.20;99.90;;;;;;5053577;28;20446;-72
2022/01/12 08:31:11;;;;;;;1999.90;999.90;;;4.30;99.90;;;;;;5065064;28;20475;-73
2022/01/12 08:33:38;;;;;;;1999.90;999.90;;;4.50;99.90;;;;;;5063418;28;20993;-72
2022/01/12 08:36:05;;;;;;;1999.90;999.90;;;4.70;99.90;;;;;;5063251;28;20477;-72
2022/01/12 08:38:32;;;;;;;1999.90;999.90;;;4.70;99.90;;;;;;5073190;28;20441;-72
2022/01/12 08:41:00;;;;;;;1999.90;999.90;;;4.80;99.90;;;;;;5063592;28;20454;-72
2022/01/12 08:43:26;;;;;;;1999.90;999.90;;;4.80;99.90;;;;;;5052655;28;20512;-72
2022/01/12 08:45:54;;;;;;;1999.90;999.90;;;4.70;99.90;;;;;;5065699;28;20465;-72
2022/01/12 08:48:20;;;;;;;1999.90;999.90;;;4.80;99.90;;;;;;5061038;28;20868;-74
2022/01/12 08:50:47;;;;;;;1999.90;999.90;;;4.80;99.90;;;;;;5063705;28;20499;-72
2022/01/12 08:53:14;;;;;;;1999.90;999.90;;;4.80;99.90;;;;;;5055331;28;20480;-73
2022/01/12 08:55:41;;;;;;;1999.90;999.90;;;4.80;99.90;;;;;;5069921;28;20855;-72
2022/01/12 08:58:09;;;;;;;1999.90;999.90;;;4.90;99.90;;;;;;5067002;28;20523;-72
2022/01/12 09:00:36;;;;;;;1999.90;999.90;;;4.90;99.90;;;;;;5052601;28;20451;-71
2022/01/12 09:03:03;;;;;;;1999.90;999.90;;;4.90;99.90;;;;;;5067557;28;20518;-71
2022/01/12 09:05:30;;;;;;;1999.90;999.90;;;4.90;99.90;;;;;;5072378;28;21062;-71
2022/01/12 09:07:56;;;;;;;1999.90;999.90;;;5.00;99.90;;;;;;5071726;28;20442;-72
2022/01/12 09:10:23;;;;;;;1999.90;999.90;;;5.10;99.90;;;;;;5063609;28;20447;-72
2022/01/12 09:12:50;;;;;;;1999.90;999.90;;;5.10;99.90;;;;;;5060638;28;20818;-71
2022/01/12 09:15:22;;;;;;;1999.90;999.90;;;5.10;99.90;;;;;;5069741;28;20535;-72
2022/01/12 09:17:49;;;;;;;1999.90;999.90;;;5.20;99.90;;;;;;5056150;28;20820;-72
2022/01/12 09:20:15;;;;;;;1999.90;999.90;;;5.30;99.90;;;;;;5069976;28;20507;-72
2022/01/12 09:22:42;;;;;;;1999.90;999.90;;;5.30;99.90;;;;;;5071376;28;20498;-70
2022/01/12 09:25:10;;;;;;;1999.90;999.90;;;5.40;99.90;;;;;;5071767;28;20466;-74
2022/01/12 09:27:37;;;;;;;1999.90;999.90;;;5.40;99.90;;;;;;5071318;28;20453;-74
2022/01/12 09:30:05;;;;;;;1999.90;999.90;;;5.30;99.90;;;;;;5072156;28;20441;-72
2022/01/12 09:32:34;;;;;;;1999.90;999.90;;;5.40;99.90;;;;;;5072297;28;20452;-72
2022/01/12 09:35:01;;;;;;;1999.90;999.90;;;5.40;99.90;;;;;;5071923;28;20989;-72
2022/01/12 09:37:28;;;;;;;1999.90;999.90;;;5.40;99.90;;;;;;5072403;28;20445;-72
2022/01/12 09:39:55;;;;;;;1999.90;999.90;;;5.40;99.90;;;;;;5061846;28;20452;-72
2022/01/12 09:42:22;;;;;;;1999.90;999.90;;;5.50;99.90;;;;;;5071910;28;20515;-72
2022/01/12 09:44:48;;;;;;;1999.90;999.90;;;5.40;99.90;;;;;;5054721;28;20458;-72
2022/01/12 09:47:17;;;;;;;1999.90;999.90;;;5.40;99.90;;;;;;5052004;28;20500;-72
2022/01/12 09:49:46;;;;;;;1999.90;999.90;;;5.40;99.90;;;;;;5071673;28;20969;-73
2022/01/12 09:52:14;;;;;;;1999.90;999.90;;;5.50;99.90;;;;;;5071683;28;20448;-72
2022/01/12 09:54:41;;;;;;;1999.90;999.90;;;5.60;99.90;;;;;;5070587;28;20473;-72
2022/01/12 09:57:08;;;;;;;1999.90;999.90;;;5.50;99.90;;;;;;5073041;28;20453;-71
2022/01/12 09:59:36;;;;;;;1999.90;999.90;;;5.60;99.90;;;;;;5055409;28;20958;-72
2022/01/12 10:02:03;;;;;;;1999.90;999.90;;;5.60;99.90;;;;;;5052657;28;20450;-72
2022/01/12 10:04:31;;;;;;;1999.90;999.90;;;5.70;99.90;;;;;;5067801;28;20442;-73
2022/01/12 10:07:01;;;;;;;1999.90;999.90;;;5.60;99.90;;;;;;5064609;28;20450;-74
2022/01/12 10:09:33;;;;;;;1999.90;999.90;;;5.60;99.90;;;;;;5071611;28;20890;-74
2022/01/12 10:12:04;;;;;;;1999.90;999.90;;;5.60;99.90;;;;;;5064166;28;20504;-72
2022/01/12 10:14:40;;;;;;;1999.90;999.90;;;5.70;99.90;;;;;;5051686;28;20990;-73
2022/01/12 10:17:07;;;;;;;1999.90;999.90;;;5.70;99.90;;;;;;5059367;28;20448;-71
2022/01/12 10:19:34;;;;;;;1999.90;999.90;;;5.70;99.90;;;;;;5068740;28;20507;-72
2022/01/12 10:22:05;;;;;;;1999.90;999.90;;;5.70;99.90;;;;;;5070629;28;20446;-71
2022/01/12 10:24:36;;;;;;;1999.90;999.90;;;5.70;99.90;;;;;;5072603;28;20484;-72
2022/01/12 10:27:11;;;;;;;1999.90;999.90;;;5.60;99.90;;;;;;5073129;28;20945;-71
2022/01/12 10:29:38;;;;;;;1999.90;999.90;;;5.60;99.90;;;;;;5065871;28;20511;-72
2022/01/12 10:32:08;;;;;;;1999.90;999.90;;;5.70;99.90;;;;;;5051512;28;20450;-72
2022/01/12 10:34:38;;;;;;;1999.90;999.90;;;5.70;99.90;;;;;;5059298;28;20488;-72
2022/01/12 10:37:09;;;;;;;1999.90;999.90;;;5.60;99.90;;;;;;5076248;28;20441;-73
2022/01/12 10:39:40;;;;;;;1999.90;999.90;;;5.80;99.90;;;;;;5063916;28;20450;-72
2022/01/12 10:42:08;;;;;;;1999.90;999.90;;;5.90;99.90;;;;;;5055797;28;20458;-71
2022/01/12 10:44:37;;;;;;;1999.90;999.90;;;5.80;99.90;;;;;;5069042;28;20498;-73
2022/01/12 10:47:06;;;;;;;1999.90;999.90;;;5.90;99.90;;;;;;5076038;28;20504;-72
2022/01/12 10:49:36;;;;;;;1999.90;999.90;;;5.80;99.90;;;;;;5075913;28;20452;-71
2022/01/12 10:52:04;;;;;;;1999.90;999.90;;;5.90;99.90;;;;;;5075931;28;20449;-72
2022/01/12 10:54:42;;;;;;;1999.90;999.90;;;6.10;99.90;;;;;;5058694;28;20528;-71
2022/01/12 10:57:15;;;;;;;1999.90;999.90;;;6.10;99.90;;;;;;5056571;28;20961;-73
2022/01/12 10:59:42;;;;;;;1999.90;999.90;;;6.20;99.90;;;;;;5055733;28;20512;-70
2022/01/12 11:02:09;;;;;;;1999.90;999.90;;;6.20;99.90;;;;;;5054923;28;20503;-72
2022/01/12 11:04:40;;;;;;;1999.90;999.90;;;6.10;99.90;;;;;;5054545;28;20450;-71
2022/01/12 11:07:07;;;;;;;1999.90;999.90;;;6.10;99.90;;;;;;5057753;28;20453;-72
2022/01/12 11:09:36;;;;;;;1999.90;999.90;;;6.10;99.90;;;;;;5075200;28;20536;-72
2022/01/12 11:12:04;;;;;;;1999.90;999.90;;;6.10;99.90;;;;;;5074541;28;20445;-73
2022/01/12 11:14:31;;;;;;;1999.90;999.90;;;6.10;99.90;;;;;;5074534;28;20542;-69
2022/01/12 11:16:59;;;;;;;1999.90;999.90;;;6.10;99.90;;;;;;5074440;28;20872;-74
2022/01/12 11:19:26;;;;;;;1999.90;999.90;;;6.00;99.90;;;;;;5074811;28;20445;-73
2022/01/12 11:22:09;;;;;;;1999.90;999.90;;;6.00;99.90;;;;;;5067426;28;20950;-72
2022/01/12 11:24:37;;;;;;;1999.90;999.90;;;6.00;99.90;;;;;;5054394;28;20484;-71
2022/01/12 11:27:06;;;;;;;1999.90;999.90;;;6.00;99.90;;;;;;5054463;28;20485;-72
2022/01/12 11:29:34;;;;;;;1999.90;999.90;;;6.10;99.90;;;;;;5054519;28;20485;-71
2022/01/12 11:32:11;;;;;;;1999.90;999.90;;;6.20;99.90;;;;;;5054588;28;20844;-71
2022/01/12 11:34:37;;;;;;;1999.90;999.90;;;6.20;99.90;;;;;;5055351;28;20489;-72
2022/01/12 11:37:12;;;;;;;1999.90;999.90;;;6.30;99.90;;;;;;5065006;28;20453;-72
2022/01/12 11:39:40;;;;;;;1999.90;999.90;;;6.30;99.90;;;;;;5074470;28;20440;-72
2022/01/12 11:42:07;;;;;;;1999.90;999.90;;;6.30;99.90;;;;;;5073710;28;20456;-71
2022/01/12 11:44:36;;;;;;;1999.90;999.90;;;6.20;99.90;;;;;;5073903;28;20498;-72
2022/01/12 11:47:05;;;;;;;1999.90;999.90;;;6.10;99.90;;;;;;5074892;28;20453;-70
2022/01/12 11:49:34;;;;;;;1999.90;999.90;;;6.10;99.90;;;;;;5074311;28;20929;-72
2022/01/12 11:52:13;;;;;;;1999.90;999.90;;;6.00;99.90;;;;;;5057815;28;20461;-72
2022/01/12 11:54:45;;;;;;;1999.90;999.90;;;6.00;99.90;;;;;;5054190;28;20466;-72
2022/01/12 11:57:18;;;;;;;1999.90;999.90;;;6.00;99.90;;;;;;5054395;28;20431;-72
2022/01/12 11:59:53;;;;;;;1999.90;999.90;;;6.00;99.90;;;;;;5054003;28;20942;-72
2022/01/12 12:02:21;;;;;;;1999.90;999.90;;;5.90;99.90;;;;;;5053507;28;20446;-72
2022/01/12 12:04:55;;;;;;;1999.90;999.90;;;5.90;99.90;;;;;;5071745;22;20553;-68
2022/01/12 12:07:23;;;;;;;1999.90;999.90;;;5.90;99.90;;;;;;5055667;28;20814;-70
2022/01/12 12:09:53;;;;;;;1999.90;999.90;;;5.80;99.90;;;;;;5056373;28;20508;-69
2022/01/12 12:12:22;;;;;;;1999.90;999.90;;;5.80;99.90;;;;;;5056776;28;20561;-70
2022/01/12 12:14:50;;;;;;;1999.90;999.90;;;5.80;99.90;;;;;;5055449;28;21020;-68
2022/01/12 12:17:18;;;;;;;1999.90;999.90;;;5.70;99.90;;;;;;5056326;28;20450;-71
2022/01/12 12:19:45;;;;;;;1999.90;999.90;;;5.80;99.90;;;;;;5046518;28;20869;-69
2022/01/12 12:22:15;;;;;;;1999.90;999.90;;;5.80;99.90;;;;;;5015574;28;20460;-69
2022/01/12 12:24:42;;;;;;;1999.90;999.90;;;5.80;99.90;;;;;;5014349;28;20482;-69
2022/01/12 12:27:12;;;;;;;1999.90;999.90;;;5.80;99.90;;;;;;5027258;28;20458;-69
2022/01/12 12:29:39;;;;;;;1999.90;999.90;;;5.90;99.90;;;;;;5029366;28;20507;-70
2022/01/12 12:32:12;;;;;;;1999.90;999.90;;;5.90;99.90;;;;;;5015973;28;20444;-69
2022/01/12 12:34:40;;;;;;;1999.90;999.90;;;5.90;99.90;;;;;;5022639;28;20478;-69
2022/01/12 12:37:09;;;;;;;1999.90;999.90;;;5.80;99.90;;;;;;5017948;28;20452;-67
2022/01/12 12:39:38;;;;;;;1999.90;999.90;;;5.80;99.90;;;;;;5035872;28;20451;-69
2022/01/12 12:42:13;;;;;;;1999.90;999.90;;;5.80;99.90;;;;;;5035533;28;20447;-68
2022/01/12 12:44:42;;;;;;;1999.90;999.90;;;5.80;99.90;;;;;;5016877;28;20475;-68
2022/01/12 12:47:13;;;;;;;1999.90;999.90;;;5.70;99.90;;;;;;5016934;28;20471;-69
2022/01/12 12:49:48;;;;;;;1999.90;999.90;;;5.70;99.90;;;;;;5025324;28;20447;-69
2022/01/12 12:52:24;;;;;;;1999.90;999.90;;;5.80;99.90;;;;;;5033337;28;20961;-70
2022/01/12 12:54:51;;;;;;;1999.90;999.90;;;5.80;99.90;;;;;;5014273;28;20537;-68
2022/01/12 12:57:21;;;;;;;1999.90;999.90;;;5.80;99.90;;;;;;5013699;28;20447;-69
2022/01/12 12:59:49;;;;;;;1999.90;999.90;;;5.80;99.90;;;;;;5014504;28;20484;-73
2022/01/12 13:02:17;;;;;;;1999.90;999.90;;;5.50;99.90;;;;;;5020653;28;20956;-70
2022/01/12 13:04:43;;;;;;;1999.90;999.90;;;5.80;99.90;;;;;;5023708;28;21070;-71
2022/01/12 13:07:17;;;;;;;1999.90;999.90;;;5.80;99.90;;;;;;5015928;28;20494;-70
2022/01/12 13:09:44;;;;;;;1999.90;999.90;;;5.80;99.90;;;;;;5022922;28;20451;-70
2022/01/12 13:12:11;;;;;;;1999.90;999.90;;;5.80;99.90;;;;;;5033349;28;20470;-70
2022/01/12 13:14:43;;;;;;;1999.90;999.90;;;5.80;99.90;;;;;;5035103;28;20501;-70
2022/01/12 13:17:12;;;;;;;1999.90;999.90;;;5.80;99.90;;;;;;5034110;28;20947;-69
2022/01/12 13:22:25;;;;;;;1999.90;999.90;;;5.80;99.90;;;;;;5015192;28;20423;-70
2022/01/12 13:24:52;;;;;;;1999.90;999.90;;;5.90;99.90;;;;;;5014928;28;21191;-70